Berrien Springs, Michigan
Current Conditions -  °F | °C
As of 2:53 AM on Monday 22 Dec 2014 (Local Time) from KBEH Reporting Station
Haze Haze  
Wind Chill: 20°   Ceiling: Unl
Heat Index: 29°   Visibility: 6mi
Dew Point: 25°   Wind: 10mph
Humidity: 85%   Direction: 130°SE
Pressure: 30.04"   Gusts: NA
Location:  41.95°N, 86.34°W
Report Text: KBEH 220753Z AUTO 13009KT 6SM BR CLR M02/M04 A3004 RMK AO2 SLP179 T10171039
Loading
Personal Weather Stations






























Interactive Weather Map New forecast layout! Learn more

10-Day Weather Forecast

Advertisements
Track Severe Weather on mobile